sensor_id;sensor_type;location;lat;lon;timestamp;P1;durP1;ratioP1;P2;durP2;ratioP2
4806;SDS011;2417;52.482;13.432;2023-05-13T00:01:33;45.83;;;5.90;;
4806;SDS011;2417;52.482;13.432;2023-05-13T00:04:06;49.07;;;7.03;;
4806;SDS011;2417;52.482;13.432;2023-05-13T00:06:34;51.83;;;7.50;;
4806;SDS011;2417;52.482;13.432;2023-05-13T00:09:03;52.23;;;5.90;;
4806;SDS011;2417;52.482;13.432;2023-05-13T00:11:31;50.47;;;6.40;;
4806;SDS011;2417;52.482;13.432;2023-05-13T00:14:00;47.47;;;6.70;;
4806;SDS011;2417;52.482;13.432;2023-05-13T00:16:28;44.27;;;6.00;;
4806;SDS011;2417;52.482;13.432;2023-05-13T00:18:56;53.10;;;6.33;;
4806;SDS011;2417;52.482;13.432;2023-05-13T00:21:25;46.43;;;5.97;;
4806;SDS011;2417;52.482;13.432;2023-05-13T00:23:53;48.23;;;6.17;;
4806;SDS011;2417;52.482;13.432;2023-05-13T00:26:21;43.07;;;5.70;;
4806;SDS011;2417;52.482;13.432;2023-05-13T00:28:49;43.90;;;6.23;;
4806;SDS011;2417;52.482;13.432;2023-05-13T00:31:17;46.23;;;6.90;;
4806;SDS011;2417;52.482;13.432;2023-05-13T00:33:44;44.03;;;6.07;;
4806;SDS011;2417;52.482;13.432;2023-05-13T00:36:12;44.50;;;6.70;;
4806;SDS011;2417;52.482;13.432;2023-05-13T00:38:41;52.53;;;7.00;;
4806;SDS011;2417;52.482;13.432;2023-05-13T00:41:10;48.03;;;7.00;;
4806;SDS011;2417;52.482;13.432;2023-05-13T00:43:38;44.70;;;6.10;;
4806;SDS011;2417;52.482;13.432;2023-05-13T00:46:06;43.47;;;6.30;;
4806;SDS011;2417;52.482;13.432;2023-05-13T00:48:35;45.80;;;6.70;;
4806;SDS011;2417;52.482;13.432;2023-05-13T00:51:03;48.73;;;7.20;;
4806;SDS011;2417;52.482;13.432;2023-05-13T00:53:32;47.50;;;6.70;;
4806;SDS011;2417;52.482;13.432;2023-05-13T00:56:01;50.57;;;6.77;;
4806;SDS011;2417;52.482;13.432;2023-05-13T00:58:30;44.27;;;6.67;;
4806;SDS011;2417;52.482;13.432;2023-05-13T01:01:00;41.67;;;6.20;;
4806;SDS011;2417;52.482;13.432;2023-05-13T01:03:32;44.20;;;6.50;;
4806;SDS011;2417;52.482;13.432;2023-05-13T01:06:03;48.63;;;6.33;;
4806;SDS011;2417;52.482;13.432;2023-05-13T01:08:34;48.10;;;6.27;;
4806;SDS011;2417;52.482;13.432;2023-05-13T01:11:05;47.57;;;6.70;;
4806;SDS011;2417;52.482;13.432;2023-05-13T01:13:36;42.53;;;5.87;;
4806;SDS011;2417;52.482;13.432;2023-05-13T01:16:10;46.23;;;6.10;;
4806;SDS011;2417;52.482;13.432;2023-05-13T01:18:42;49.73;;;6.70;;
4806;SDS011;2417;52.482;13.432;2023-05-13T01:21:11;44.90;;;6.63;;
4806;SDS011;2417;52.482;13.432;2023-05-13T01:23:40;45.93;;;6.23;;
4806;SDS011;2417;52.482;13.432;2023-05-13T01:26:08;49.43;;;7.00;;
4806;SDS011;2417;52.482;13.432;2023-05-13T01:28:36;47.97;;;7.20;;
4806;SDS011;2417;52.482;13.432;2023-05-13T01:31:04;47.50;;;7.87;;
4806;SDS011;2417;52.482;13.432;2023-05-13T01:33:36;50.83;;;7.40;;
4806;SDS011;2417;52.482;13.432;2023-05-13T01:36:04;49.63;;;6.83;;
4806;SDS011;2417;52.482;13.432;2023-05-13T01:38:34;55.00;;;6.80;;
4806;SDS011;2417;52.482;13.432;2023-05-13T01:41:03;51.70;;;6.60;;
4806;SDS011;2417;52.482;13.432;2023-05-13T01:43:31;66.97;;;7.00;;
4806;SDS011;2417;52.482;13.432;2023-05-13T01:45:59;45.60;;;6.80;;
4806;SDS011;2417;52.482;13.432;2023-05-13T01:48:28;49.77;;;7.03;;
4806;SDS011;2417;52.482;13.432;2023-05-13T01:50:56;48.67;;;6.90;;
4806;SDS011;2417;52.482;13.432;2023-05-13T01:53:24;44.93;;;6.93;;
4806;SDS011;2417;52.482;13.432;2023-05-13T01:55:56;44.37;;;6.40;;
4806;SDS011;2417;52.482;13.432;2023-05-13T01:58:26;46.30;;;6.50;;
4806;SDS011;2417;52.482;13.432;2023-05-13T02:00:54;47.07;;;7.00;;
4806;SDS011;2417;52.482;13.432;2023-05-13T02:03:22;44.30;;;6.10;;
4806;SDS011;2417;52.482;13.432;2023-05-13T02:05:51;51.60;;;7.00;;
4806;SDS011;2417;52.482;13.432;2023-05-13T02:08:19;49.70;;;7.80;;
4806;SDS011;2417;52.482;13.432;2023-05-13T02:10:53;46.70;;;7.20;;
4806;SDS011;2417;52.482;13.432;2023-05-13T02:13:21;44.40;;;6.30;;
4806;SDS011;2417;52.482;13.432;2023-05-13T02:15:50;43.37;;;6.53;;
4806;SDS011;2417;52.482;13.432;2023-05-13T02:18:18;46.70;;;6.63;;
4806;SDS011;2417;52.482;13.432;2023-05-13T02:20:46;59.77;;;6.67;;
4806;SDS011;2417;52.482;13.432;2023-05-13T02:23:15;56.47;;;6.63;;
4806;SDS011;2417;52.482;13.432;2023-05-13T02:25:43;44.27;;;6.87;;
4806;SDS011;2417;52.482;13.432;2023-05-13T02:28:11;47.57;;;7.37;;
4806;SDS011;2417;52.482;13.432;2023-05-13T02:30:40;44.93;;;7.00;;
4806;SDS011;2417;52.482;13.432;2023-05-13T02:33:09;48.03;;;7.03;;
4806;SDS011;2417;52.482;13.432;2023-05-13T02:35:40;43.57;;;6.77;;
4806;SDS011;2417;52.482;13.432;2023-05-13T02:38:08;50.17;;;6.83;;
4806;SDS011;2417;52.482;13.432;2023-05-13T02:40:36;48.97;;;7.30;;
4806;SDS011;2417;52.482;13.432;2023-05-13T02:43:05;45.57;;;6.90;;
4806;SDS011;2417;52.482;13.432;2023-05-13T02:45:47;48.40;;;7.17;;
4806;SDS011;2417;52.482;13.432;2023-05-13T02:48:17;46.60;;;6.70;;
4806;SDS011;2417;52.482;13.432;2023-05-13T02:50:45;46.10;;;6.83;;
4806;SDS011;2417;52.482;13.432;2023-05-13T02:53:13;43.60;;;6.87;;
4806;SDS011;2417;52.482;13.432;2023-05-13T02:55:47;42.20;;;6.30;;
4806;SDS011;2417;52.482;13.432;2023-05-13T02:58:15;46.90;;;7.30;;
4806;SDS011;2417;52.482;13.432;2023-05-13T03:00:45;43.90;;;6.40;;
4806;SDS011;2417;52.482;13.432;2023-05-13T03:03:13;45.80;;;6.87;;
4806;SDS011;2417;52.482;13.432;2023-05-13T03:05:43;44.60;;;6.40;;
4806;SDS011;2417;52.482;13.432;2023-05-13T03:08:10;44.20;;;6.43;;
4806;SDS011;2417;52.482;13.432;2023-05-13T03:10:38;45.87;;;6.80;;
4806;SDS011;2417;52.482;13.432;2023-05-13T03:13:07;42.30;;;6.93;;
4806;SDS011;2417;52.482;13.432;2023-05-13T03:15:34;48.83;;;7.13;;
4806;SDS011;2417;52.482;13.432;2023-05-13T03:18:04;48.57;;;6.80;;
4806;SDS011;2417;52.482;13.432;2023-05-13T03:20:31;44.77;;;7.10;;
4806;SDS011;2417;52.482;13.432;2023-05-13T03:23:02;45.70;;;6.57;;
4806;SDS011;2417;52.482;13.432;2023-05-13T03:25:32;45.40;;;7.00;;
4806;SDS011;2417;52.482;13.432;2023-05-13T03:28:01;46.60;;;6.90;;
4806;SDS011;2417;52.482;13.432;2023-05-13T03:30:36;54.10;;;7.27;;
4806;SDS011;2417;52.482;13.432;2023-05-13T03:33:09;47.00;;;7.20;;
4806;SDS011;2417;52.482;13.432;2023-05-13T03:35:37;47.93;;;7.80;;
4806;SDS011;2417;52.482;13.432;2023-05-13T03:38:06;49.77;;;7.23;;
4806;SDS011;2417;52.482;13.432;2023-05-13T03:40:39;49.43;;;7.27;;
4806;SDS011;2417;52.482;13.432;2023-05-13T03:43:08;51.90;;;7.77;;
4806;SDS011;2417;52.482;13.432;2023-05-13T03:45:39;43.20;;;7.20;;
4806;SDS011;2417;52.482;13.432;2023-05-13T03:48:13;45.50;;;7.10;;
4806;SDS011;2417;52.482;13.432;2023-05-13T03:50:41;43.00;;;7.07;;
4806;SDS011;2417;52.482;13.432;2023-05-13T03:53:11;46.70;;;7.00;;
4806;SDS011;2417;52.482;13.432;2023-05-13T03:55:40;51.93;;;7.63;;
4806;SDS011;2417;52.482;13.432;2023-05-13T03:58:10;45.57;;;6.80;;
4806;SDS011;2417;52.482;13.432;2023-05-13T04:00:38;44.07;;;7.40;;
4806;SDS011;2417;52.482;13.432;2023-05-13T04:03:06;47.93;;;6.23;;
4806;SDS011;2417;52.482;13.432;2023-05-13T04:05:34;44.70;;;6.87;;
4806;SDS011;2417;52.482;13.432;2023-05-13T04:08:02;44.33;;;6.90;;
4806;SDS011;2417;52.482;13.432;2023-05-13T04:10:32;43.17;;;6.30;;
4806;SDS011;2417;52.482;13.432;2023-05-13T04:13:00;41.00;;;6.53;;
4806;SDS011;2417;52.482;13.432;2023-05-13T04:15:28;47.10;;;6.30;;
4806;SDS011;2417;52.482;13.432;2023-05-13T04:17:57;50.27;;;7.03;;
4806;SDS011;2417;52.482;13.432;2023-05-13T04:20:26;45.33;;;7.50;;
4806;SDS011;2417;52.482;13.432;2023-05-13T04:22:54;44.70;;;6.70;;
4806;SDS011;2417;52.482;13.432;2023-05-13T04:25:22;53.17;;;6.80;;
4806;SDS011;2417;52.482;13.432;2023-05-13T04:27:53;42.73;;;6.50;;
4806;SDS011;2417;52.482;13.432;2023-05-13T04:30:26;43.90;;;6.50;;
4806;SDS011;2417;52.482;13.432;2023-05-13T04:32:55;42.40;;;6.90;;
4806;SDS011;2417;52.482;13.432;2023-05-13T04:35:23;43.63;;;6.40;;
4806;SDS011;2417;52.482;13.432;2023-05-13T04:37:55;43.07;;;6.80;;
4806;SDS011;2417;52.482;13.432;2023-05-13T04:40:24;47.30;;;6.77;;
4806;SDS011;2417;52.482;13.432;2023-05-13T04:42:55;43.70;;;6.37;;
4806;SDS011;2417;52.482;13.432;2023-05-13T04:45:31;41.67;;;6.80;;
4806;SDS011;2417;52.482;13.432;2023-05-13T04:47:59;44.13;;;7.13;;
4806;SDS011;2417;52.482;13.432;2023-05-13T04:50:27;44.63;;;7.63;;
4806;SDS011;2417;52.482;13.432;2023-05-13T04:52:56;48.60;;;6.83;;
4806;SDS011;2417;52.482;13.432;2023-05-13T04:55:24;47.53;;;6.70;;
4806;SDS011;2417;52.482;13.432;2023-05-13T04:57:56;44.83;;;6.50;;
4806;SDS011;2417;52.482;13.432;2023-05-13T05:00:24;42.03;;;6.63;;
4806;SDS011;2417;52.482;13.432;2023-05-13T05:02:52;40.57;;;6.30;;
4806;SDS011;2417;52.482;13.432;2023-05-13T05:05:20;47.50;;;7.13;;
4806;SDS011;2417;52.482;13.432;2023-05-13T05:07:48;48.93;;;7.10;;
4806;SDS011;2417;52.482;13.432;2023-05-13T05:10:19;41.03;;;6.13;;
4806;SDS011;2417;52.482;13.432;2023-05-13T05:12:52;43.57;;;6.57;;
4806;SDS011;2417;52.482;13.432;2023-05-13T05:15:22;43.20;;;6.63;;
4806;SDS011;2417;52.482;13.432;2023-05-13T05:17:53;45.67;;;6.23;;
4806;SDS011;2417;52.482;13.432;2023-05-13T05:20:22;40.50;;;6.13;;
4806;SDS011;2417;52.482;13.432;2023-05-13T05:22:53;42.27;;;6.70;;
4806;SDS011;2417;52.482;13.432;2023-05-13T05:25:23;38.50;;;5.73;;
4806;SDS011;2417;52.482;13.432;2023-05-13T05:27:52;42.90;;;6.37;;
4806;SDS011;2417;52.482;13.432;2023-05-13T05:30:20;49.17;;;6.50;;
4806;SDS011;2417;52.482;13.432;2023-05-13T05:32:57;44.30;;;6.93;;
4806;SDS011;2417;52.482;13.432;2023-05-13T05:35:27;41.10;;;5.90;;
4806;SDS011;2417;52.482;13.432;2023-05-13T05:37:56;44.20;;;6.40;;
4806;SDS011;2417;52.482;13.432;2023-05-13T05:40:24;41.00;;;5.77;;
4806;SDS011;2417;52.482;13.432;2023-05-13T05:42:51;42.30;;;5.43;;
4806;SDS011;2417;52.482;13.432;2023-05-13T05:45:19;41.43;;;6.00;;
4806;SDS011;2417;52.482;13.432;2023-05-13T05:47:47;42.00;;;6.43;;
4806;SDS011;2417;52.482;13.432;2023-05-13T05:50:17;44.90;;;6.47;;
4806;SDS011;2417;52.482;13.432;2023-05-13T05:52:45;43.47;;;6.27;;
4806;SDS011;2417;52.482;13.432;2023-05-13T05:55:14;38.33;;;5.70;;
4806;SDS011;2417;52.482;13.432;2023-05-13T05:57:42;42.03;;;6.23;;
4806;SDS011;2417;52.482;13.432;2023-05-13T06:00:10;39.27;;;5.60;;
4806;SDS011;2417;52.482;13.432;2023-05-13T06:02:42;41.00;;;6.60;;
4806;SDS011;2417;52.482;13.432;2023-05-13T06:05:11;40.30;;;6.03;;
4806;SDS011;2417;52.482;13.432;2023-05-13T06:07:41;38.17;;;5.80;;
4806;SDS011;2417;52.482;13.432;2023-05-13T06:10:09;37.60;;;5.07;;
4806;SDS011;2417;52.482;13.432;2023-05-13T06:12:37;39.30;;;5.77;;
4806;SDS011;2417;52.482;13.432;2023-05-13T06:15:08;37.73;;;5.47;;
4806;SDS011;2417;52.482;13.432;2023-05-13T06:17:37;35.93;;;5.70;;
4806;SDS011;2417;52.482;13.432;2023-05-13T06:20:06;35.80;;;5.50;;
4806;SDS011;2417;52.482;13.432;2023-05-13T06:22:34;37.57;;;6.33;;
4806;SDS011;2417;52.482;13.432;2023-05-13T06:25:04;33.13;;;5.70;;
4806;SDS011;2417;52.482;13.432;2023-05-13T06:27:32;34.70;;;5.73;;
4806;SDS011;2417;52.482;13.432;2023-05-13T06:30:00;34.77;;;5.63;;
4806;SDS011;2417;52.482;13.432;2023-05-13T06:32:28;32.20;;;5.27;;
4806;SDS011;2417;52.482;13.432;2023-05-13T06:34:57;37.70;;;6.33;;
4806;SDS011;2417;52.482;13.432;2023-05-13T06:37:25;31.70;;;5.50;;
4806;SDS011;2417;52.482;13.432;2023-05-13T06:39:53;33.57;;;5.43;;
4806;SDS011;2417;52.482;13.432;2023-05-13T06:42:23;34.83;;;5.20;;
4806;SDS011;2417;52.482;13.432;2023-05-13T06:44:57;38.47;;;5.70;;
4806;SDS011;2417;52.482;13.432;2023-05-13T06:47:29;35.47;;;5.53;;
4806;SDS011;2417;52.482;13.432;2023-05-13T06:50:00;30.20;;;5.20;;
4806;SDS011;2417;52.482;13.432;2023-05-13T06:52:29;33.73;;;4.87;;
4806;SDS011;2417;52.482;13.432;2023-05-13T06:54:57;32.40;;;4.80;;
4806;SDS011;2417;52.482;13.432;2023-05-13T06:57:27;37.13;;;5.00;;
4806;SDS011;2417;52.482;13.432;2023-05-13T07:00:07;30.53;;;4.90;;
4806;SDS011;2417;52.482;13.432;2023-05-13T07:02:36;33.43;;;4.63;;
4806;SDS011;2417;52.482;13.432;2023-05-13T07:05:04;56.73;;;4.90;;
4806;SDS011;2417;52.482;13.432;2023-05-13T07:07:33;31.23;;;5.43;;
4806;SDS011;2417;52.482;13.432;2023-05-13T07:10:03;33.40;;;4.47;;
4806;SDS011;2417;52.482;13.432;2023-05-13T07:12:32;33.50;;;4.60;;
4806;SDS011;2417;52.482;13.432;2023-05-13T07:15:00;31.40;;;5.03;;
4806;SDS011;2417;52.482;13.432;2023-05-13T07:17:28;31.70;;;5.37;;
4806;SDS011;2417;52.482;13.432;2023-05-13T07:19:57;42.83;;;4.10;;
4806;SDS011;2417;52.482;13.432;2023-05-13T07:22:24;30.17;;;4.13;;
4806;SDS011;2417;52.482;13.432;2023-05-13T07:24:53;30.27;;;4.37;;
4806;SDS011;2417;52.482;13.432;2023-05-13T07:27:21;33.73;;;4.17;;
4806;SDS011;2417;52.482;13.432;2023-05-13T07:29:50;31.63;;;4.30;;
4806;SDS011;2417;52.482;13.432;2023-05-13T07:32:18;38.03;;;4.27;;
4806;SDS011;2417;52.482;13.432;2023-05-13T07:34:47;29.30;;;4.20;;
4806;SDS011;2417;52.482;13.432;2023-05-13T07:37:14;29.87;;;4.27;;
4806;SDS011;2417;52.482;13.432;2023-05-13T07:39:42;30.90;;;4.27;;
4806;SDS011;2417;52.482;13.432;2023-05-13T07:42:10;30.07;;;3.90;;
4806;SDS011;2417;52.482;13.432;2023-05-13T07:44:38;29.97;;;3.83;;
4806;SDS011;2417;52.482;13.432;2023-05-13T07:47:07;33.60;;;4.40;;
4806;SDS011;2417;52.482;13.432;2023-05-13T07:49:36;34.87;;;4.33;;
4806;SDS011;2417;52.482;13.432;2023-05-13T07:52:04;31.70;;;4.60;;
4806;SDS011;2417;52.482;13.432;2023-05-13T07:54:32;31.93;;;4.40;;
4806;SDS011;2417;52.482;13.432;2023-05-13T07:57:00;29.67;;;3.90;;
4806;SDS011;2417;52.482;13.432;2023-05-13T07:59:28;28.07;;;4.00;;
4806;SDS011;2417;52.482;13.432;2023-05-13T08:01:56;30.80;;;4.50;;
4806;SDS011;2417;52.482;13.432;2023-05-13T08:04:27;29.40;;;4.20;;
4806;SDS011;2417;52.482;13.432;2023-05-13T08:06:57;39.13;;;4.60;;
4806;SDS011;2417;52.482;13.432;2023-05-13T08:09:27;29.90;;;4.23;;
4806;SDS011;2417;52.482;13.432;2023-05-13T08:11:56;34.57;;;4.10;;
4806;SDS011;2417;52.482;13.432;2023-05-13T08:14:25;34.23;;;5.40;;
4806;SDS011;2417;52.482;13.432;2023-05-13T08:16:53;31.97;;;4.60;;
4806;SDS011;2417;52.482;13.432;2023-05-13T08:19:22;38.00;;;4.50;;
4806;SDS011;2417;52.482;13.432;2023-05-13T08:21:51;31.87;;;4.37;;
4806;SDS011;2417;52.482;13.432;2023-05-13T08:24:19;31.43;;;4.57;;
4806;SDS011;2417;52.482;13.432;2023-05-13T08:26:47;30.87;;;4.40;;
4806;SDS011;2417;52.482;13.432;2023-05-13T08:29:15;35.80;;;5.27;;
4806;SDS011;2417;52.482;13.432;2023-05-13T08:31:43;29.93;;;4.50;;
4806;SDS011;2417;52.482;13.432;2023-05-13T08:34:12;31.23;;;4.20;;
4806;SDS011;2417;52.482;13.432;2023-05-13T08:36:40;30.40;;;4.20;;
4806;SDS011;2417;52.482;13.432;2023-05-13T08:39:09;31.83;;;3.97;;
4806;SDS011;2417;52.482;13.432;2023-05-13T08:41:38;31.40;;;4.50;;
4806;SDS011;2417;52.482;13.432;2023-05-13T08:44:07;30.33;;;4.23;;
4806;SDS011;2417;52.482;13.432;2023-05-13T08:46:36;30.93;;;4.80;;
4806;SDS011;2417;52.482;13.432;2023-05-13T08:49:05;36.63;;;4.87;;
4806;SDS011;2417;52.482;13.432;2023-05-13T08:51:33;30.13;;;4.70;;
4806;SDS011;2417;52.482;13.432;2023-05-13T08:54:01;28.57;;;4.83;;
4806;SDS011;2417;52.482;13.432;2023-05-13T08:56:31;30.23;;;4.77;;
4806;SDS011;2417;52.482;13.432;2023-05-13T08:59:01;28.60;;;4.20;;
4806;SDS011;2417;52.482;13.432;2023-05-13T09:01:29;30.43;;;4.03;;
4806;SDS011;2417;52.482;13.432;2023-05-13T09:03:58;33.60;;;5.40;;
4806;SDS011;2417;52.482;13.432;2023-05-13T09:06:28;30.70;;;4.30;;
4806;SDS011;2417;52.482;13.432;2023-05-13T09:08:56;37.03;;;4.27;;
4806;SDS011;2417;52.482;13.432;2023-05-13T09:11:24;31.27;;;4.37;;
4806;SDS011;2417;52.482;13.432;2023-05-13T09:13:57;30.57;;;4.37;;
4806;SDS011;2417;52.482;13.432;2023-05-13T09:16:26;30.13;;;4.43;;
4806;SDS011;2417;52.482;13.432;2023-05-13T09:18:56;29.40;;;4.30;;
4806;SDS011;2417;52.482;13.432;2023-05-13T09:21:24;29.10;;;4.13;;
4806;SDS011;2417;52.482;13.432;2023-05-13T09:24:01;27.87;;;4.10;;
4806;SDS011;2417;52.482;13.432;2023-05-13T09:26:29;34.60;;;5.67;;
4806;SDS011;2417;52.482;13.432;2023-05-13T09:29:16;30.07;;;4.33;;
4806;SDS011;2417;52.482;13.432;2023-05-13T09:31:44;29.60;;;3.97;;
4806;SDS011;2417;52.482;13.432;2023-05-13T09:34:14;29.17;;;4.47;;
4806;SDS011;2417;52.482;13.432;2023-05-13T09:36:42;30.53;;;3.80;;
4806;SDS011;2417;52.482;13.432;2023-05-13T09:39:10;26.33;;;3.43;;
4806;SDS011;2417;52.482;13.432;2023-05-13T09:41:38;28.50;;;3.70;;
4806;SDS011;2417;52.482;13.432;2023-05-13T09:44:06;26.73;;;3.40;;
4806;SDS011;2417;52.482;13.432;2023-05-13T09:46:39;28.33;;;3.40;;
4806;SDS011;2417;52.482;13.432;2023-05-13T09:49:09;28.53;;;3.37;;
4806;SDS011;2417;52.482;13.432;2023-05-13T09:51:37;28.97;;;3.57;;
4806;SDS011;2417;52.482;13.432;2023-05-13T09:54:05;28.20;;;3.50;;
4806;SDS011;2417;52.482;13.432;2023-05-13T09:56:34;30.00;;;3.80;;
4806;SDS011;2417;52.482;13.432;2023-05-13T09:59:02;30.43;;;3.43;;
4806;SDS011;2417;52.482;13.432;2023-05-13T10:01:30;29.90;;;3.60;;
4806;SDS011;2417;52.482;13.432;2023-05-13T10:04:00;31.47;;;3.90;;
4806;SDS011;2417;52.482;13.432;2023-05-13T10:06:29;27.30;;;3.63;;
4806;SDS011;2417;52.482;13.432;2023-05-13T10:08:58;26.13;;;3.80;;
4806;SDS011;2417;52.482;13.432;2023-05-13T10:11:27;29.20;;;3.43;;
4806;SDS011;2417;52.482;13.432;2023-05-13T10:13:57;28.03;;;3.20;;
4806;SDS011;2417;52.482;13.432;2023-05-13T10:16:26;27.60;;;3.40;;
4806;SDS011;2417;52.482;13.432;2023-05-13T10:18:55;27.40;;;3.70;;
4806;SDS011;2417;52.482;13.432;2023-05-13T10:21:25;38.03;;;4.80;;
4806;SDS011;2417;52.482;13.432;2023-05-13T10:23:55;26.60;;;3.57;;
4806;SDS011;2417;52.482;13.432;2023-05-13T10:26:23;35.10;;;3.23;;
4806;SDS011;2417;52.482;13.432;2023-05-13T10:28:51;36.63;;;3.50;;
4806;SDS011;2417;52.482;13.432;2023-05-13T10:31:21;35.30;;;3.50;;
4806;SDS011;2417;52.482;13.432;2023-05-13T10:33:49;37.27;;;3.37;;
4806;SDS011;2417;52.482;13.432;2023-05-13T10:36:23;34.27;;;3.40;;
4806;SDS011;2417;52.482;13.432;2023-05-13T10:39:01;36.07;;;4.07;;
4806;SDS011;2417;52.482;13.432;2023-05-13T10:44:16;40.23;;;4.23;;
4806;SDS011;2417;52.482;13.432;2023-05-13T10:46:46;39.00;;;3.37;;
4806;SDS011;2417;52.482;13.432;2023-05-13T10:49:14;36.90;;;4.20;;
4806;SDS011;2417;52.482;13.432;2023-05-13T10:51:43;38.07;;;3.70;;
4806;SDS011;2417;52.482;13.432;2023-05-13T10:54:18;41.33;;;4.20;;
4806;SDS011;2417;52.482;13.432;2023-05-13T10:56:55;39.10;;;3.80;;
4806;SDS011;2417;52.482;13.432;2023-05-13T10:59:24;35.20;;;3.53;;
4806;SDS011;2417;52.482;13.432;2023-05-13T11:01:56;41.13;;;3.47;;
4806;SDS011;2417;52.482;13.432;2023-05-13T11:04:27;37.33;;;3.23;;
4806;SDS011;2417;52.482;13.432;2023-05-13T11:06:56;40.90;;;3.13;;
4806;SDS011;2417;52.482;13.432;2023-05-13T11:09:42;37.63;;;3.70;;
4806;SDS011;2417;52.482;13.432;2023-05-13T11:12:15;35.03;;;3.17;;
4806;SDS011;2417;52.482;13.432;2023-05-13T11:14:46;36.33;;;3.77;;
4806;SDS011;2417;52.482;13.432;2023-05-13T11:17:15;42.33;;;3.70;;
4806;SDS011;2417;52.482;13.432;2023-05-13T11:19:44;39.87;;;3.80;;
4806;SDS011;2417;52.482;13.432;2023-05-13T11:22:13;43.93;;;5.40;;
4806;SDS011;2417;52.482;13.432;2023-05-13T11:24:44;39.90;;;5.47;;
4806;SDS011;2417;52.482;13.432;2023-05-13T11:27:13;40.57;;;4.37;;
4806;SDS011;2417;52.482;13.432;2023-05-13T11:29:46;36.83;;;3.43;;
4806;SDS011;2417;52.482;13.432;2023-05-13T11:32:15;35.80;;;3.37;;
4806;SDS011;2417;52.482;13.432;2023-05-13T11:35:03;38.20;;;3.63;;
4806;SDS011;2417;52.482;13.432;2023-05-13T11:37:57;39.30;;;2.90;;
4806;SDS011;2417;52.482;13.432;2023-05-13T11:40:28;39.00;;;3.73;;
4806;SDS011;2417;52.482;13.432;2023-05-13T11:42:57;36.67;;;3.10;;
4806;SDS011;2417;52.482;13.432;2023-05-13T11:45:25;35.70;;;3.17;;
4806;SDS011;2417;52.482;13.432;2023-05-13T11:47:53;132.20;;;7.20;;
4806;SDS011;2417;52.482;13.432;2023-05-13T11:50:22;36.37;;;3.33;;
4806;SDS011;2417;52.482;13.432;2023-05-13T11:52:51;37.03;;;3.50;;
4806;SDS011;2417;52.482;13.432;2023-05-13T11:55:25;35.37;;;3.30;;
4806;SDS011;2417;52.482;13.432;2023-05-13T11:57:55;36.43;;;3.90;;
4806;SDS011;2417;52.482;13.432;2023-05-13T12:00:24;36.33;;;3.83;;
4806;SDS011;2417;52.482;13.432;2023-05-13T12:02:53;35.90;;;3.00;;
4806;SDS011;2417;52.482;13.432;2023-05-13T12:05:23;39.50;;;3.80;;
4806;SDS011;2417;52.482;13.432;2023-05-13T12:07:56;46.20;;;3.60;;
4806;SDS011;2417;52.482;13.432;2023-05-13T12:10:25;36.53;;;3.30;;
4806;SDS011;2417;52.482;13.432;2023-05-13T12:12:53;43.60;;;3.17;;
4806;SDS011;2417;52.482;13.432;2023-05-13T12:15:23;37.17;;;3.40;;
4806;SDS011;2417;52.482;13.432;2023-05-13T12:17:52;38.23;;;3.33;;
4806;SDS011;2417;52.482;13.432;2023-05-13T12:20:20;38.87;;;3.67;;
4806;SDS011;2417;52.482;13.432;2023-05-13T12:22:50;35.47;;;2.93;;
4806;SDS011;2417;52.482;13.432;2023-05-13T12:25:35;34.90;;;3.13;;
4806;SDS011;2417;52.482;13.432;2023-05-13T12:28:11;40.70;;;3.43;;
4806;SDS011;2417;52.482;13.432;2023-05-13T12:30:41;37.87;;;3.70;;
4806;SDS011;2417;52.482;13.432;2023-05-13T12:33:13;35.87;;;3.30;;
4806;SDS011;2417;52.482;13.432;2023-05-13T12:35:41;39.67;;;3.60;;
4806;SDS011;2417;52.482;13.432;2023-05-13T12:38:12;39.97;;;3.40;;
4806;SDS011;2417;52.482;13.432;2023-05-13T12:40:41;39.03;;;3.40;;
4806;SDS011;2417;52.482;13.432;2023-05-13T12:43:09;43.23;;;4.43;;
4806;SDS011;2417;52.482;13.432;2023-05-13T12:45:42;40.03;;;4.23;;
4806;SDS011;2417;52.482;13.432;2023-05-13T12:48:12;38.33;;;3.50;;
4806;SDS011;2417;52.482;13.432;2023-05-13T12:50:40;37.27;;;3.90;;
4806;SDS011;2417;52.482;13.432;2023-05-13T12:53:09;36.47;;;3.47;;
4806;SDS011;2417;52.482;13.432;2023-05-13T12:55:37;39.10;;;3.40;;
4806;SDS011;2417;52.482;13.432;2023-05-13T12:58:06;36.27;;;3.30;;
4806;SDS011;2417;52.482;13.432;2023-05-13T13:00:36;38.77;;;3.67;;
4806;SDS011;2417;52.482;13.432;2023-05-13T13:03:04;35.67;;;3.37;;
4806;SDS011;2417;52.482;13.432;2023-05-13T13:05:35;36.30;;;2.93;;
4806;SDS011;2417;52.482;13.432;2023-05-13T13:08:03;38.00;;;3.90;;
4806;SDS011;2417;52.482;13.432;2023-05-13T13:10:31;41.60;;;4.03;;
4806;SDS011;2417;52.482;13.432;2023-05-13T13:12:59;41.07;;;3.77;;
4806;SDS011;2417;52.482;13.432;2023-05-13T13:15:27;44.43;;;5.43;;
4806;SDS011;2417;52.482;13.432;2023-05-13T13:17:55;41.60;;;3.70;;
4806;SDS011;2417;52.482;13.432;2023-05-13T13:20:23;41.60;;;4.03;;
4806;SDS011;2417;52.482;13.432;2023-05-13T13:22:53;41.43;;;3.87;;
4806;SDS011;2417;52.482;13.432;2023-05-13T13:25:21;38.20;;;3.83;;
4806;SDS011;2417;52.482;13.432;2023-05-13T13:27:49;40.17;;;3.27;;
4806;SDS011;2417;52.482;13.432;2023-05-13T13:30:17;35.90;;;3.60;;
4806;SDS011;2417;52.482;13.432;2023-05-13T13:32:45;35.17;;;3.77;;
4806;SDS011;2417;52.482;13.432;2023-05-13T13:35:13;36.00;;;4.00;;
4806;SDS011;2417;52.482;13.432;2023-05-13T13:37:41;42.13;;;3.67;;
4806;SDS011;2417;52.482;13.432;2023-05-13T13:40:11;36.57;;;3.80;;
4806;SDS011;2417;52.482;13.432;2023-05-13T13:42:39;36.30;;;3.87;;
4806;SDS011;2417;52.482;13.432;2023-05-13T13:45:10;38.47;;;3.97;;
4806;SDS011;2417;52.482;13.432;2023-05-13T13:47:41;37.30;;;4.27;;
4806;SDS011;2417;52.482;13.432;2023-05-13T13:50:09;39.40;;;4.90;;
4806;SDS011;2417;52.482;13.432;2023-05-13T13:52:37;37.63;;;4.00;;
4806;SDS011;2417;52.482;13.432;2023-05-13T13:55:06;39.77;;;3.67;;
4806;SDS011;2417;52.482;13.432;2023-05-13T13:57:35;34.57;;;3.77;;
4806;SDS011;2417;52.482;13.432;2023-05-13T14:00:04;45.13;;;4.00;;
4806;SDS011;2417;52.482;13.432;2023-05-13T14:02:32;41.70;;;5.07;;
4806;SDS011;2417;52.482;13.432;2023-05-13T14:05:00;37.50;;;4.47;;
4806;SDS011;2417;52.482;13.432;2023-05-13T14:07:28;39.20;;;4.50;;
4806;SDS011;2417;52.482;13.432;2023-05-13T14:09:56;38.70;;;4.43;;
4806;SDS011;2417;52.482;13.432;2023-05-13T14:12:27;40.17;;;5.50;;
4806;SDS011;2417;52.482;13.432;2023-05-13T14:14:56;38.40;;;4.47;;
4806;SDS011;2417;52.482;13.432;2023-05-13T14:17:24;39.50;;;4.90;;
4806;SDS011;2417;52.482;13.432;2023-05-13T14:19:52;40.00;;;4.53;;
4806;SDS011;2417;52.482;13.432;2023-05-13T14:22:21;37.97;;;4.07;;
4806;SDS011;2417;52.482;13.432;2023-05-13T14:24:49;37.73;;;4.40;;
4806;SDS011;2417;52.482;13.432;2023-05-13T14:27:17;37.30;;;4.07;;
4806;SDS011;2417;52.482;13.432;2023-05-13T14:29:45;36.43;;;4.00;;
4806;SDS011;2417;52.482;13.432;2023-05-13T14:32:16;39.47;;;4.23;;
4806;SDS011;2417;52.482;13.432;2023-05-13T14:34:45;37.10;;;3.60;;
4806;SDS011;2417;52.482;13.432;2023-05-13T14:37:12;36.23;;;4.00;;
4806;SDS011;2417;52.482;13.432;2023-05-13T14:39:42;36.37;;;4.47;;
4806;SDS011;2417;52.482;13.432;2023-05-13T14:42:14;39.37;;;5.13;;
4806;SDS011;2417;52.482;13.432;2023-05-13T14:44:42;38.27;;;4.30;;
4806;SDS011;2417;52.482;13.432;2023-05-13T14:47:10;38.07;;;4.33;;
4806;SDS011;2417;52.482;13.432;2023-05-13T14:49:41;36.37;;;4.60;;
4806;SDS011;2417;52.482;13.432;2023-05-13T14:52:08;36.30;;;4.47;;
4806;SDS011;2417;52.482;13.432;2023-05-13T14:54:36;39.67;;;4.40;;
4806;SDS011;2417;52.482;13.432;2023-05-13T14:57:04;35.80;;;3.83;;
4806;SDS011;2417;52.482;13.432;2023-05-13T14:59:32;44.33;;;4.60;;
4806;SDS011;2417;52.482;13.432;2023-05-13T15:02:01;38.30;;;3.87;;
4806;SDS011;2417;52.482;13.432;2023-05-13T15:04:29;39.57;;;5.23;;